sensor_id;sensor_type;location;lat;lon;timestamp;temperature;humidity
820;DHT22;392;48.838;2.322;2023-11-21T00:00:18;12.00;73.80
820;DHT22;392;48.838;2.322;2023-11-21T00:02:45;12.00;73.80
820;DHT22;392;48.838;2.322;2023-11-21T00:05:14;12.00;73.80
820;DHT22;392;48.838;2.322;2023-11-21T00:07:42;12.00;73.30
820;DHT22;392;48.838;2.322;2023-11-21T00:10:10;12.00;73.30
820;DHT22;392;48.838;2.322;2023-11-21T00:12:41;12.00;73.30
820;DHT22;392;48.838;2.322;2023-11-21T00:15:09;12.00;74.10
820;DHT22;392;48.838;2.322;2023-11-21T00:17:37;12.00;72.80
820;DHT22;392;48.838;2.322;2023-11-21T00:20:06;12.00;72.80
820;DHT22;392;48.838;2.322;2023-11-21T00:22:34;12.00;72.90
820;DHT22;392;48.838;2.322;2023-11-21T00:25:02;12.10;73.00
820;DHT22;392;48.838;2.322;2023-11-21T00:27:31;12.10;72.90
820;DHT22;392;48.838;2.322;2023-11-21T00:29:59;12.10;72.50
820;DHT22;392;48.838;2.322;2023-11-21T00:32:26;12.10;71.80
820;DHT22;392;48.838;2.322;2023-11-21T00:34:53;12.10;71.70
820;DHT22;392;48.838;2.322;2023-11-21T00:37:21;12.10;71.60
820;DHT22;392;48.838;2.322;2023-11-21T00:39:50;12.10;71.60
820;DHT22;392;48.838;2.322;2023-11-21T00:42:17;12.10;71.60
820;DHT22;392;48.838;2.322;2023-11-21T00:44:45;12.10;71.60
820;DHT22;392;48.838;2.322;2023-11-21T00:47:13;12.10;71.30
820;DHT22;392;48.838;2.322;2023-11-21T00:49:41;12.10;71.10
820;DHT22;392;48.838;2.322;2023-11-21T00:52:09;12.10;70.90
820;DHT22;392;48.838;2.322;2023-11-21T00:54:36;12.10;70.90
820;DHT22;392;48.838;2.322;2023-11-21T00:57:04;12.10;70.80
820;DHT22;392;48.838;2.322;2023-11-21T00:59:32;12.10;70.90
820;DHT22;392;48.838;2.322;2023-11-21T01:01:59;12.10;70.80
820;DHT22;392;48.838;2.322;2023-11-21T01:04:28;12.10;70.50
820;DHT22;392;48.838;2.322;2023-11-21T01:06:55;12.10;70.50
820;DHT22;392;48.838;2.322;2023-11-21T01:09:22;12.00;70.20
820;DHT22;392;48.838;2.322;2023-11-21T01:11:51;12.00;70.10
820;DHT22;392;48.838;2.322;2023-11-21T01:14:19;12.00;70.20
820;DHT22;392;48.838;2.322;2023-11-21T01:16:46;12.00;70.50
820;DHT22;392;48.838;2.322;2023-11-21T01:19:14;12.00;70.30
820;DHT22;392;48.838;2.322;2023-11-21T01:21:43;11.90;70.00
820;DHT22;392;48.838;2.322;2023-11-21T01:24:10;11.90;70.00
820;DHT22;392;48.838;2.322;2023-11-21T01:26:37;11.90;70.00
820;DHT22;392;48.838;2.322;2023-11-21T01:29:05;11.90;70.20
820;DHT22;392;48.838;2.322;2023-11-21T01:31:32;11.80;70.40
820;DHT22;392;48.838;2.322;2023-11-21T01:33:59;11.70;70.60
820;DHT22;392;48.838;2.322;2023-11-21T01:36:30;11.70;70.70
820;DHT22;392;48.838;2.322;2023-11-21T01:39:00;11.70;70.80
820;DHT22;392;48.838;2.322;2023-11-21T01:41:27;11.70;71.30
820;DHT22;392;48.838;2.322;2023-11-21T01:43:55;11.60;71.70
820;DHT22;392;48.838;2.322;2023-11-21T01:46:23;11.60;72.00
820;DHT22;392;48.838;2.322;2023-11-21T01:48:50;11.60;72.40
820;DHT22;392;48.838;2.322;2023-11-21T01:51:18;11.60;72.70
820;DHT22;392;48.838;2.322;2023-11-21T01:53:46;11.70;72.60
820;DHT22;392;48.838;2.322;2023-11-21T01:56:14;11.70;72.20
820;DHT22;392;48.838;2.322;2023-11-21T01:58:42;11.70;71.90
820;DHT22;392;48.838;2.322;2023-11-21T02:01:12;11.70;71.90
820;DHT22;392;48.838;2.322;2023-11-21T02:03:40;11.70;71.90
820;DHT22;392;48.838;2.322;2023-11-21T02:06:07;11.70;71.90
820;DHT22;392;48.838;2.322;2023-11-21T02:08:35;11.70;71.80
820;DHT22;392;48.838;2.322;2023-11-21T02:11:04;11.70;71.80
820;DHT22;392;48.838;2.322;2023-11-21T02:13:33;11.70;71.30
820;DHT22;392;48.838;2.322;2023-11-21T02:16:01;11.80;71.00
820;DHT22;392;48.838;2.322;2023-11-21T02:18:28;11.80;70.70
820;DHT22;392;48.838;2.322;2023-11-21T02:20:56;11.80;70.50
820;DHT22;392;48.838;2.322;2023-11-21T02:23:25;11.80;70.90
820;DHT22;392;48.838;2.322;2023-11-21T02:25:54;11.80;69.60
820;DHT22;392;48.838;2.322;2023-11-21T02:28:22;11.90;69.30
820;DHT22;392;48.838;2.322;2023-11-21T02:30:52;11.80;69.20
820;DHT22;392;48.838;2.322;2023-11-21T02:33:21;11.90;69.30
820;DHT22;392;48.838;2.322;2023-11-21T02:35:48;11.90;69.30
820;DHT22;392;48.838;2.322;2023-11-21T02:38:17;11.90;68.70
820;DHT22;392;48.838;2.322;2023-11-21T02:40:47;11.90;68.40
820;DHT22;392;48.838;2.322;2023-11-21T02:43:14;11.90;68.00
820;DHT22;392;48.838;2.322;2023-11-21T02:45:41;11.90;67.90
820;DHT22;392;48.838;2.322;2023-11-21T02:48:09;11.90;67.90
820;DHT22;392;48.838;2.322;2023-11-21T02:50:36;11.80;67.90
820;DHT22;392;48.838;2.322;2023-11-21T02:53:04;11.80;68.20
820;DHT22;392;48.838;2.322;2023-11-21T02:55:32;11.90;68.60
820;DHT22;392;48.838;2.322;2023-11-21T02:58:02;11.90;68.40
820;DHT22;392;48.838;2.322;2023-11-21T03:00:30;11.80;68.30
820;DHT22;392;48.838;2.322;2023-11-21T03:02:57;11.90;68.50
820;DHT22;392;48.838;2.322;2023-11-21T03:05:25;11.90;68.60
820;DHT22;392;48.838;2.322;2023-11-21T03:07:54;11.90;68.60
820;DHT22;392;48.838;2.322;2023-11-21T03:10:22;11.90;68.60
820;DHT22;392;48.838;2.322;2023-11-21T03:12:49;11.90;68.50
820;DHT22;392;48.838;2.322;2023-11-21T03:15:17;11.90;68.60
820;DHT22;392;48.838;2.322;2023-11-21T03:17:45;11.90;68.60
820;DHT22;392;48.838;2.322;2023-11-21T03:20:15;11.90;68.80
820;DHT22;392;48.838;2.322;2023-11-21T03:22:42;11.90;68.70
820;DHT22;392;48.838;2.322;2023-11-21T03:25:10;11.90;68.80
820;DHT22;392;48.838;2.322;2023-11-21T03:27:37;11.90;69.00
820;DHT22;392;48.838;2.322;2023-11-21T03:30:09;11.80;69.20
820;DHT22;392;48.838;2.322;2023-11-21T03:32:38;11.80;69.20
820;DHT22;392;48.838;2.322;2023-11-21T03:35:06;11.90;69.80
820;DHT22;392;48.838;2.322;2023-11-21T03:42:29;11.90;69.10
820;DHT22;392;48.838;2.322;2023-11-21T03:44:57;11.90;69.60
820;DHT22;392;48.838;2.322;2023-11-21T03:47:24;11.90;69.30
820;DHT22;392;48.838;2.322;2023-11-21T03:49:54;11.90;69.30
820;DHT22;392;48.838;2.322;2023-11-21T03:52:21;11.90;69.30
820;DHT22;392;48.838;2.322;2023-11-21T03:54:48;11.90;69.40
820;DHT22;392;48.838;2.322;2023-11-21T03:57:15;11.80;69.40
820;DHT22;392;48.838;2.322;2023-11-21T03:59:43;11.80;69.90
820;DHT22;392;48.838;2.322;2023-11-21T04:02:10;11.80;70.40
820;DHT22;392;48.838;2.322;2023-11-21T04:04:37;11.80;70.80
820;DHT22;392;48.838;2.322;2023-11-21T04:07:06;11.80;71.20
820;DHT22;392;48.838;2.322;2023-11-21T04:09:33;11.80;71.70
820;DHT22;392;48.838;2.322;2023-11-21T04:12:02;11.90;71.20
820;DHT22;392;48.838;2.322;2023-11-21T04:14:29;11.80;70.80
820;DHT22;392;48.838;2.322;2023-11-21T04:16:56;11.80;71.90
820;DHT22;392;48.838;2.322;2023-11-21T04:19:23;11.80;71.20
820;DHT22;392;48.838;2.322;2023-11-21T04:21:51;11.90;71.50
820;DHT22;392;48.838;2.322;2023-11-21T04:24:19;11.80;72.00
820;DHT22;392;48.838;2.322;2023-11-21T04:26:47;11.80;72.60
820;DHT22;392;48.838;2.322;2023-11-21T04:29:14;11.80;72.90
820;DHT22;392;48.838;2.322;2023-11-21T04:31:42;11.80;73.10
820;DHT22;392;48.838;2.322;2023-11-21T04:34:09;11.80;73.50
820;DHT22;392;48.838;2.322;2023-11-21T04:36:36;11.90;73.70
820;DHT22;392;48.838;2.322;2023-11-21T04:39:03;11.90;73.70
820;DHT22;392;48.838;2.322;2023-11-21T04:41:33;11.90;73.70
820;DHT22;392;48.838;2.322;2023-11-21T04:44:02;11.90;73.70
820;DHT22;392;48.838;2.322;2023-11-21T04:46:30;11.80;73.60
820;DHT22;392;48.838;2.322;2023-11-21T04:48:57;11.80;73.70
820;DHT22;392;48.838;2.322;2023-11-21T04:51:24;11.80;74.20
820;DHT22;392;48.838;2.322;2023-11-21T04:53:52;11.80;74.40
820;DHT22;392;48.838;2.322;2023-11-21T04:56:19;11.80;74.70
820;DHT22;392;48.838;2.322;2023-11-21T04:58:48;11.80;75.30
820;DHT22;392;48.838;2.322;2023-11-21T05:01:15;11.80;75.60
820;DHT22;392;48.838;2.322;2023-11-21T05:03:43;11.80;75.90
820;DHT22;392;48.838;2.322;2023-11-21T05:06:10;11.80;75.80
820;DHT22;392;48.838;2.322;2023-11-21T05:08:38;11.80;75.90
820;DHT22;392;48.838;2.322;2023-11-21T05:11:05;11.80;76.20
820;DHT22;392;48.838;2.322;2023-11-21T05:13:34;11.80;76.80
820;DHT22;392;48.838;2.322;2023-11-21T05:16:03;11.80;77.10
820;DHT22;392;48.838;2.322;2023-11-21T05:18:32;11.80;77.30
820;DHT22;392;48.838;2.322;2023-11-21T05:21:00;11.80;77.60
820;DHT22;392;48.838;2.322;2023-11-21T05:23:27;11.90;77.80
820;DHT22;392;48.838;2.322;2023-11-21T05:25:55;11.80;78.00
820;DHT22;392;48.838;2.322;2023-11-21T05:28:22;11.80;78.20
820;DHT22;392;48.838;2.322;2023-11-21T05:30:50;11.80;78.80
820;DHT22;392;48.838;2.322;2023-11-21T05:33:18;11.80;80.00
820;DHT22;392;48.838;2.322;2023-11-21T05:35:45;11.80;79.60
820;DHT22;392;48.838;2.322;2023-11-21T05:38:14;11.80;80.00
820;DHT22;392;48.838;2.322;2023-11-21T05:40:41;11.80;80.40
820;DHT22;392;48.838;2.322;2023-11-21T05:43:09;11.90;80.70
820;DHT22;392;48.838;2.322;2023-11-21T05:45:37;11.90;80.80
820;DHT22;392;48.838;2.322;2023-11-21T05:48:05;11.90;80.60
820;DHT22;392;48.838;2.322;2023-11-21T05:50:33;11.90;80.50
820;DHT22;392;48.838;2.322;2023-11-21T05:53:00;11.90;80.60
820;DHT22;392;48.838;2.322;2023-11-21T05:55:28;11.90;80.70
820;DHT22;392;48.838;2.322;2023-11-21T05:57:55;11.90;81.00
820;DHT22;392;48.838;2.322;2023-11-21T06:00:22;11.90;81.10
820;DHT22;392;48.838;2.322;2023-11-21T06:02:51;11.90;81.30
820;DHT22;392;48.838;2.322;2023-11-21T06:05:21;11.90;81.40
820;DHT22;392;48.838;2.322;2023-11-21T06:07:51;11.90;81.50
820;DHT22;392;48.838;2.322;2023-11-21T06:10:19;11.90;81.20
820;DHT22;392;48.838;2.322;2023-11-21T06:12:47;11.90;81.30
820;DHT22;392;48.838;2.322;2023-11-21T06:15:14;11.90;81.50
820;DHT22;392;48.838;2.322;2023-11-21T06:17:45;11.90;82.10
820;DHT22;392;48.838;2.322;2023-11-21T06:20:15;11.90;82.50
820;DHT22;392;48.838;2.322;2023-11-21T06:22:45;11.90;82.50
820;DHT22;392;48.838;2.322;2023-11-21T06:25:17;11.90;83.10
820;DHT22;392;48.838;2.322;2023-11-21T06:27:45;11.90;83.70
820;DHT22;392;48.838;2.322;2023-11-21T06:30:13;11.90;84.00
820;DHT22;392;48.838;2.322;2023-11-21T06:32:43;11.90;84.50
820;DHT22;392;48.838;2.322;2023-11-21T06:35:11;11.90;84.60
820;DHT22;392;48.838;2.322;2023-11-21T06:37:39;11.90;84.60
820;DHT22;392;48.838;2.322;2023-11-21T06:40:07;11.90;84.60
820;DHT22;392;48.838;2.322;2023-11-21T06:42:37;11.80;85.10
820;DHT22;392;48.838;2.322;2023-11-21T06:45:05;11.80;85.30
820;DHT22;392;48.838;2.322;2023-11-21T06:47:33;11.80;85.50
820;DHT22;392;48.838;2.322;2023-11-21T06:50:00;11.80;85.60
820;DHT22;392;48.838;2.322;2023-11-21T06:52:29;11.80;85.70
820;DHT22;392;48.838;2.322;2023-11-21T06:54:59;11.80;86.20
820;DHT22;392;48.838;2.322;2023-11-21T06:57:26;11.80;86.60
820;DHT22;392;48.838;2.322;2023-11-21T06:59:55;11.80;86.70
820;DHT22;392;48.838;2.322;2023-11-21T07:02:23;11.80;87.10
820;DHT22;392;48.838;2.322;2023-11-21T07:04:50;11.80;87.40
820;DHT22;392;48.838;2.322;2023-11-21T07:07:18;11.80;87.70
820;DHT22;392;48.838;2.322;2023-11-21T07:09:45;11.80;88.10
820;DHT22;392;48.838;2.322;2023-11-21T07:12:13;11.80;88.50
820;DHT22;392;48.838;2.322;2023-11-21T07:14:41;11.80;89.00
820;DHT22;392;48.838;2.322;2023-11-21T07:17:11;11.90;89.40
820;DHT22;392;48.838;2.322;2023-11-21T07:19:39;11.90;89.60
820;DHT22;392;48.838;2.322;2023-11-21T07:22:07;11.90;89.80
820;DHT22;392;48.838;2.322;2023-11-21T07:24:34;11.90;90.00
820;DHT22;392;48.838;2.322;2023-11-21T07:27:02;12.00;90.00
820;DHT22;392;48.838;2.322;2023-11-21T07:29:30;12.00;90.00
820;DHT22;392;48.838;2.322;2023-11-21T07:31:58;12.00;90.10
820;DHT22;392;48.838;2.322;2023-11-21T07:34:27;12.00;90.10
820;DHT22;392;48.838;2.322;2023-11-21T07:36:54;12.00;90.20
820;DHT22;392;48.838;2.322;2023-11-21T07:39:22;12.10;90.20
820;DHT22;392;48.838;2.322;2023-11-21T07:41:49;12.10;90.20
820;DHT22;392;48.838;2.322;2023-11-21T07:44:16;12.10;90.20
820;DHT22;392;48.838;2.322;2023-11-21T07:46:45;12.10;90.10
820;DHT22;392;48.838;2.322;2023-11-21T07:49:13;12.20;90.00
820;DHT22;392;48.838;2.322;2023-11-21T07:51:43;12.20;90.00
820;DHT22;392;48.838;2.322;2023-11-21T07:54:10;12.20;90.10
820;DHT22;392;48.838;2.322;2023-11-21T07:56:37;12.20;90.10
820;DHT22;392;48.838;2.322;2023-11-21T07:59:05;12.20;90.00
820;DHT22;392;48.838;2.322;2023-11-21T08:01:32;12.30;90.00
820;DHT22;392;48.838;2.322;2023-11-21T08:03:59;12.30;89.70
820;DHT22;392;48.838;2.322;2023-11-21T08:06:29;12.30;89.70
820;DHT22;392;48.838;2.322;2023-11-21T08:08:58;12.30;89.70
820;DHT22;392;48.838;2.322;2023-11-21T08:11:25;12.40;89.90
820;DHT22;392;48.838;2.322;2023-11-21T08:13:55;12.40;89.70
820;DHT22;392;48.838;2.322;2023-11-21T08:16:22;12.50;89.60
820;DHT22;392;48.838;2.322;2023-11-21T08:18:49;12.50;88.90
820;DHT22;392;48.838;2.322;2023-11-21T08:21:17;12.50;88.20
820;DHT22;392;48.838;2.322;2023-11-21T08:23:44;12.50;87.70
820;DHT22;392;48.838;2.322;2023-11-21T08:26:16;12.50;87.20
820;DHT22;392;48.838;2.322;2023-11-21T08:28:44;12.50;86.40
820;DHT22;392;48.838;2.322;2023-11-21T08:31:11;12.50;86.10
820;DHT22;392;48.838;2.322;2023-11-21T08:33:38;12.50;85.90
820;DHT22;392;48.838;2.322;2023-11-21T08:36:07;12.50;86.00
820;DHT22;392;48.838;2.322;2023-11-21T08:38:35;12.50;86.00
820;DHT22;392;48.838;2.322;2023-11-21T08:41:05;12.60;86.20
820;DHT22;392;48.838;2.322;2023-11-21T08:43:35;12.60;85.70
820;DHT22;392;48.838;2.322;2023-11-21T08:46:05;12.60;85.30
820;DHT22;392;48.838;2.322;2023-11-21T08:48:35;12.70;85.30
820;DHT22;392;48.838;2.322;2023-11-21T08:51:03;12.70;85.10
820;DHT22;392;48.838;2.322;2023-11-21T08:53:30;12.70;84.60
820;DHT22;392;48.838;2.322;2023-11-21T08:55:58;12.80;84.80
820;DHT22;392;48.838;2.322;2023-11-21T08:58:26;12.80;84.30
820;DHT22;392;48.838;2.322;2023-11-21T09:00:54;12.90;84.40
820;DHT22;392;48.838;2.322;2023-11-21T09:03:22;12.90;84.70
820;DHT22;392;48.838;2.322;2023-11-21T09:05:50;13.00;84.40
820;DHT22;392;48.838;2.322;2023-11-21T09:08:17;13.10;83.60
820;DHT22;392;48.838;2.322;2023-11-21T09:10:45;13.10;82.50
820;DHT22;392;48.838;2.322;2023-11-21T09:13:13;13.10;81.10
820;DHT22;392;48.838;2.322;2023-11-21T09:15:43;13.00;80.70
820;DHT22;392;48.838;2.322;2023-11-21T09:18:13;13.10;80.60
820;DHT22;392;48.838;2.322;2023-11-21T09:20:41;13.00;79.20
820;DHT22;392;48.838;2.322;2023-11-21T09:23:09;12.90;79.30
820;DHT22;392;48.838;2.322;2023-11-21T09:25:37;12.90;79.70
820;DHT22;392;48.838;2.322;2023-11-21T09:28:05;12.90;79.10
820;DHT22;392;48.838;2.322;2023-11-21T09:30:34;12.90;79.90
820;DHT22;392;48.838;2.322;2023-11-21T09:33:01;12.90;81.20
820;DHT22;392;48.838;2.322;2023-11-21T09:35:32;13.00;83.00
820;DHT22;392;48.838;2.322;2023-11-21T09:37:59;13.10;82.50
820;DHT22;392;48.838;2.322;2023-11-21T09:40:31;13.20;83.70
820;DHT22;392;48.838;2.322;2023-11-21T09:42:58;13.30;84.50
820;DHT22;392;48.838;2.322;2023-11-21T09:45:27;13.50;84.90
820;DHT22;392;48.838;2.322;2023-11-21T09:47:57;13.60;84.10
820;DHT22;392;48.838;2.322;2023-11-21T09:50:25;13.70;82.40
820;DHT22;392;48.838;2.322;2023-11-21T09:52:58;13.80;81.90
820;DHT22;392;48.838;2.322;2023-11-21T09:55:34;13.90;80.60
820;DHT22;392;48.838;2.322;2023-11-21T09:58:03;14.00;78.50
820;DHT22;392;48.838;2.322;2023-11-21T10:00:34;14.10;77.80
820;DHT22;392;48.838;2.322;2023-11-21T10:03:02;14.20;75.80
820;DHT22;392;48.838;2.322;2023-11-21T10:05:29;14.30;71.20
820;DHT22;392;48.838;2.322;2023-11-21T10:08:01;14.30;71.00
820;DHT22;392;48.838;2.322;2023-11-21T10:10:32;14.20;68.40
820;DHT22;392;48.838;2.322;2023-11-21T10:13:02;14.00;66.70
820;DHT22;392;48.838;2.322;2023-11-21T10:15:33;13.90;66.60
820;DHT22;392;48.838;2.322;2023-11-21T10:18:05;13.80;67.70
820;DHT22;392;48.838;2.322;2023-11-21T10:20:35;13.60;68.30
820;DHT22;392;48.838;2.322;2023-11-21T10:23:05;13.60;70.10
820;DHT22;392;48.838;2.322;2023-11-21T10:25:37;13.50;71.20
820;DHT22;392;48.838;2.322;2023-11-21T10:28:04;13.60;72.20
820;DHT22;392;48.838;2.322;2023-11-21T10:30:33;13.50;72.90
820;DHT22;392;48.838;2.322;2023-11-21T10:33:03;13.40;72.80
820;DHT22;392;48.838;2.322;2023-11-21T10:35:43;13.40;73.60
820;DHT22;392;48.838;2.322;2023-11-21T10:38:18;13.40;75.10
820;DHT22;392;48.838;2.322;2023-11-21T10:40:47;13.50;76.80
820;DHT22;392;48.838;2.322;2023-11-21T10:43:15;13.50;76.40
820;DHT22;392;48.838;2.322;2023-11-21T10:45:43;13.50;77.20
820;DHT22;392;48.838;2.322;2023-11-21T10:48:12;13.50;78.20
820;DHT22;392;48.838;2.322;2023-11-21T10:50:41;13.50;78.90
820;DHT22;392;48.838;2.322;2023-11-21T10:53:09;13.60;80.00
820;DHT22;392;48.838;2.322;2023-11-21T10:55:40;13.80;82.30
820;DHT22;392;48.838;2.322;2023-11-21T10:58:08;13.90;81.40
820;DHT22;392;48.838;2.322;2023-11-21T11:00:37;14.00;80.90
820;DHT22;392;48.838;2.322;2023-11-21T11:03:06;14.10;79.20
820;DHT22;392;48.838;2.322;2023-11-21T11:05:41;14.10;77.90
820;DHT22;392;48.838;2.322;2023-11-21T11:08:19;14.20;77.20
820;DHT22;392;48.838;2.322;2023-11-21T11:10:53;14.20;75.80
820;DHT22;392;48.838;2.322;2023-11-21T11:13:20;14.20;73.80
820;DHT22;392;48.838;2.322;2023-11-21T11:15:48;14.20;74.60
820;DHT22;392;48.838;2.322;2023-11-21T11:18:16;14.30;74.70
820;DHT22;392;48.838;2.322;2023-11-21T11:20:46;14.40;74.40
820;DHT22;392;48.838;2.322;2023-11-21T11:23:30;14.40;72.10
820;DHT22;392;48.838;2.322;2023-11-21T11:26:12;14.30;71.50
820;DHT22;392;48.838;2.322;2023-11-21T11:29:01;14.40;71.90
820;DHT22;392;48.838;2.322;2023-11-21T11:31:40;14.40;72.30
820;DHT22;392;48.838;2.322;2023-11-21T11:34:23;14.50;71.30
820;DHT22;392;48.838;2.322;2023-11-21T11:36:58;14.40;70.40
820;DHT22;392;48.838;2.322;2023-11-21T11:39:29;14.40;69.90
820;DHT22;392;48.838;2.322;2023-11-21T11:41:59;14.40;70.10
820;DHT22;392;48.838;2.322;2023-11-21T11:44:50;14.40;70.30
820;DHT22;392;48.838;2.322;2023-11-21T11:47:22;14.30;69.80
820;DHT22;392;48.838;2.322;2023-11-21T11:50:02;14.30;71.50
820;DHT22;392;48.838;2.322;2023-11-21T11:52:38;14.30;70.80
820;DHT22;392;48.838;2.322;2023-11-21T11:55:08;14.30;71.50
820;DHT22;392;48.838;2.322;2023-11-21T11:57:42;14.40;71.00
820;DHT22;392;48.838;2.322;2023-11-21T12:00:14;14.30;69.90
820;DHT22;392;48.838;2.322;2023-11-21T12:02:45;14.20;70.30
820;DHT22;392;48.838;2.322;2023-11-21T12:05:14;14.20;71.00
820;DHT22;392;48.838;2.322;2023-11-21T12:07:45;14.30;71.70
820;DHT22;392;48.838;2.322;2023-11-21T12:10:17;14.30;72.70
820;DHT22;392;48.838;2.322;2023-11-21T12:12:48;14.40;72.70
820;DHT22;392;48.838;2.322;2023-11-21T12:15:16;14.40;71.60
820;DHT22;392;48.838;2.322;2023-11-21T12:17:46;14.40;70.30
820;DHT22;392;48.838;2.322;2023-11-21T12:20:15;14.40;69.90
820;DHT22;392;48.838;2.322;2023-11-21T12:22:46;14.30;70.00
820;DHT22;392;48.838;2.322;2023-11-21T12:25:15;14.30;70.40
820;DHT22;392;48.838;2.322;2023-11-21T12:27:45;14.20;70.80
820;DHT22;392;48.838;2.322;2023-11-21T12:30:16;14.10;71.30
820;DHT22;392;48.838;2.322;2023-11-21T12:32:45;14.00;72.70
820;DHT22;392;48.838;2.322;2023-11-21T12:35:15;14.00;73.60
820;DHT22;392;48.838;2.322;2023-11-21T12:37:45;13.90;73.90
820;DHT22;392;48.838;2.322;2023-11-21T12:40:14;14.00;75.30
820;DHT22;392;48.838;2.322;2023-11-21T12:42:44;14.10;76.00
820;DHT22;392;48.838;2.322;2023-11-21T12:45:22;14.10;76.90
820;DHT22;392;48.838;2.322;2023-11-21T12:47:53;14.20;77.20
820;DHT22;392;48.838;2.322;2023-11-21T12:50:23;14.30;76.00
820;DHT22;392;48.838;2.322;2023-11-21T12:52:58;14.40;75.30
820;DHT22;392;48.838;2.322;2023-11-21T12:55:26;14.50;74.30
820;DHT22;392;48.838;2.322;2023-11-21T12:57:57;14.50;72.50
820;DHT22;392;48.838;2.322;2023-11-21T13:00:32;14.60;71.30
820;DHT22;392;48.838;2.322;2023-11-21T13:03:04;14.60;69.10
820;DHT22;392;48.838;2.322;2023-11-21T13:05:33;14.50;68.00
820;DHT22;392;48.838;2.322;2023-11-21T13:08:05;14.50;68.20
820;DHT22;392;48.838;2.322;2023-11-21T13:10:35;14.40;67.50
820;DHT22;392;48.838;2.322;2023-11-21T13:13:04;14.40;67.00
820;DHT22;392;48.838;2.322;2023-11-21T13:15:38;14.40;68.00
820;DHT22;392;48.838;2.322;2023-11-21T13:18:06;14.50;68.80
820;DHT22;392;48.838;2.322;2023-11-21T13:20:36;14.60;68.90
820;DHT22;392;48.838;2.322;2023-11-21T13:23:08;14.80;67.60
820;DHT22;392;48.838;2.322;2023-11-21T13:25:38;14.90;65.10
820;DHT22;392;48.838;2.322;2023-11-21T13:28:07;15.00;63.40
820;DHT22;392;48.838;2.322;2023-11-21T13:30:36;15.00;62.10
820;DHT22;392;48.838;2.322;2023-11-21T13:33:06;15.10;60.00
820;DHT22;392;48.838;2.322;2023-11-21T13:35:34;15.10;58.40
820;DHT22;392;48.838;2.322;2023-11-21T13:38:09;15.10;56.10
820;DHT22;392;48.838;2.322;2023-11-21T13:40:39;15.10;56.70
820;DHT22;392;48.838;2.322;2023-11-21T13:43:08;15.00;55.10
820;DHT22;392;48.838;2.322;2023-11-21T13:45:38;14.90;54.90
820;DHT22;392;48.838;2.322;2023-11-21T13:48:06;14.90;55.30
820;DHT22;392;48.838;2.322;2023-11-21T13:50:35;14.80;55.90
820;DHT22;392;48.838;2.322;2023-11-21T13:53:03;14.80;55.90
820;DHT22;392;48.838;2.322;2023-11-21T13:55:36;14.80;54.60
820;DHT22;392;48.838;2.322;2023-11-21T13:58:05;14.80;54.10
820;DHT22;392;48.838;2.322;2023-11-21T14:00:38;14.80;54.50
820;DHT22;392;48.838;2.322;2023-11-21T14:03:11;14.80;54.20
820;DHT22;392;48.838;2.322;2023-11-21T14:05:46;14.80;54.00
820;DHT22;392;48.838;2.322;2023-11-21T14:08:20;14.80;54.30
820;DHT22;392;48.838;2.322;2023-11-21T14:10:50;14.80;54.60
820;DHT22;392;48.838;2.322;2023-11-21T14:13:21;14.80;54.60
820;DHT22;392;48.838;2.322;2023-11-21T14:15:50;14.70;54.50
820;DHT22;392;48.838;2.322;2023-11-21T14:18:23;14.70;55.60
820;DHT22;392;48.838;2.322;2023-11-21T14:20:56;14.70;56.20
820;DHT22;392;48.838;2.322;2023-11-21T14:23:23;14.70;56.50
820;DHT22;392;48.838;2.322;2023-11-21T14:25:50;14.60;56.50
820;DHT22;392;48.838;2.322;2023-11-21T14:28:18;14.60;56.90
820;DHT22;392;48.838;2.322;2023-11-21T14:30:46;14.50;56.90
820;DHT22;392;48.838;2.322;2023-11-21T14:33:14;14.50;57.10
820;DHT22;392;48.838;2.322;2023-11-21T14:35:42;14.50;57.20
820;DHT22;392;48.838;2.322;2023-11-21T14:38:10;14.50;57.40
820;DHT22;392;48.838;2.322;2023-11-21T14:40:39;14.40;57.60
820;DHT22;392;48.838;2.322;2023-11-21T14:43:07;14.40;57.70
820;DHT22;392;48.838;2.322;2023-11-21T14:45:34;14.40;57.70
820;DHT22;392;48.838;2.322;2023-11-21T14:48:01;14.40;58.10
820;DHT22;392;48.838;2.322;2023-11-21T14:50:43;14.40;58.40
820;DHT22;392;48.838;2.322;2023-11-21T14:53:21;14.40;58.80
820;DHT22;392;48.838;2.322;2023-11-21T14:56:10;14.30;59.30
820;DHT22;392;48.838;2.322;2023-11-21T14:58:36;14.30;60.00
820;DHT22;392;48.838;2.322;2023-11-21T15:01:05;14.40;60.30
820;DHT22;392;48.838;2.322;2023-11-21T15:03:33;14.30;60.00
820;DHT22;392;48.838;2.322;2023-11-21T15:06:10;14.30;59.80
820;DHT22;392;48.838;2.322;2023-11-21T15:08:51;14.20;59.10
820;DHT22;392;48.838;2.322;2023-11-21T15:11:25;14.30;59.40
820;DHT22;392;48.838;2.322;2023-11-21T15:13:57;14.30;59.30
820;DHT22;392;48.838;2.322;2023-11-21T15:16:24;14.40;59.20
820;DHT22;392;48.838;2.322;2023-11-21T15:18:52;14.40;58.10
820;DHT22;392;48.838;2.322;2023-11-21T15:21:21;14.30;57.60
820;DHT22;392;48.838;2.322;2023-11-21T15:23:50;14.30;57.60
820;DHT22;392;48.838;2.322;2023-11-21T15:26:18;14.30;57.60
820;DHT22;392;48.838;2.322;2023-11-21T15:28:45;14.30;57.60
820;DHT22;392;48.838;2.322;2023-11-21T15:31:12;14.30;57.30
820;DHT22;392;48.838;2.322;2023-11-21T15:33:42;14.30;57.30
820;DHT22;392;48.838;2.322;2023-11-21T15:36:09;14.30;57.30
820;DHT22;392;48.838;2.322;2023-11-21T15:38:38;14.30;56.40
820;DHT22;392;48.838;2.322;2023-11-21T15:41:05;14.30;56.90
820;DHT22;392;48.838;2.322;2023-11-21T15:43:35;14.30;56.90
820;DHT22;392;48.838;2.322;2023-11-21T15:46:02;14.30;56.80
820;DHT22;392;48.838;2.322;2023-11-21T15:48:33;14.30;57.00
820;DHT22;392;48.838;2.322;2023-11-21T15:51:01;14.30;57.20
820;DHT22;392;48.838;2.322;2023-11-21T15:53:30;14.20;57.00
820;DHT22;392;48.838;2.322;2023-11-21T15:56:00;14.20;57.50
820;DHT22;392;48.838;2.322;2023-11-21T15:58:29;14.20;58.40
820;DHT22;392;48.838;2.322;2023-11-21T16:00:57;14.20;59.40
820;DHT22;392;48.838;2.322;2023-11-21T16:03:24;14.10;60.00
820;DHT22;392;48.838;2.322;2023-11-21T16:05:51;14.00;60.30
820;DHT22;392;48.838;2.322;2023-11-21T16:08:19;14.00;60.60
820;DHT22;392;48.838;2.322;2023-11-21T16:10:46;14.00;61.40
820;DHT22;392;48.838;2.322;2023-11-21T16:13:15;14.00;62.00
820;DHT22;392;48.838;2.322;2023-11-21T16:15:44;14.00;62.00
820;DHT22;392;48.838;2.322;2023-11-21T16:18:11;13.90;61.90
820;DHT22;392;48.838;2.322;2023-11-21T16:20:38;13.90;61.90
820;DHT22;392;48.838;2.322;2023-11-21T16:23:05;13.80;62.60
820;DHT22;392;48.838;2.322;2023-11-21T16:25:34;13.80;63.20
820;DHT22;392;48.838;2.322;2023-11-21T16:28:02;13.80;63.90
820;DHT22;392;48.838;2.322;2023-11-21T16:30:31;13.70;64.10
820;DHT22;392;48.838;2.322;2023-11-21T16:32:59;13.60;64.50
820;DHT22;392;48.838;2.322;2023-11-21T16:35:27;13.60;65.30
820;DHT22;392;48.838;2.322;2023-11-21T16:37:54;13.60;66.20
820;DHT22;392;48.838;2.322;2023-11-21T16:40:21;13.60;66.40
820;DHT22;392;48.838;2.322;2023-11-21T16:42:48;13.50;67.50
820;DHT22;392;48.838;2.322;2023-11-21T16:45:15;13.50;68.20
820;DHT22;392;48.838;2.322;2023-11-21T16:47:44;13.50;69.30
820;DHT22;392;48.838;2.322;2023-11-21T16:50:11;13.40;69.60